createdAt,value
2019-03-27T00:00:04.852Z,89.46
2019-03-27T00:01:05.411Z,89.52
2019-03-27T00:02:04.833Z,89.01
2019-03-27T00:03:04.729Z,89.25
2019-03-27T00:04:04.702Z,89.25
2019-03-27T00:05:04.696Z,89.56
2019-03-27T00:06:04.654Z,89.42
2019-03-27T00:07:04.596Z,89.77
2019-03-27T00:08:04.561Z,89.42
2019-03-27T00:09:04.544Z,89.46
2019-03-27T00:10:04.502Z,89.46
2019-03-27T00:11:04.501Z,89.46
2019-03-27T00:12:04.429Z,89.56
2019-03-27T00:13:04.400Z,89.32
2019-03-27T00:14:04.362Z,89.62
2019-03-27T00:15:12.721Z,89.32
2019-03-27T00:16:04.323Z,89.52
2019-03-27T00:17:04.267Z,89.42
2019-03-27T00:18:04.231Z,89.42
2019-03-27T00:19:04.203Z,89.42
2019-03-27T00:20:04.168Z,89.32
2019-03-27T00:21:04.152Z,89.83
2019-03-27T00:22:04.100Z,89.73
2019-03-27T00:23:04.063Z,89.42
2019-03-27T00:24:04.043Z,89.11
2019-03-27T00:25:04.020Z,89.01
2019-03-27T00:26:03.998Z,89.11
2019-03-27T00:27:03.935Z,88.80
2019-03-27T00:28:03.910Z,88.90
2019-03-27T00:29:03.877Z,88.90
2019-03-27T00:30:03.836Z,88.70
2019-03-27T00:31:03.826Z,88.86
2019-03-27T00:32:03.768Z,89.01
2019-03-27T00:33:03.741Z,89.73
2019-03-27T00:34:03.702Z,89.38
2019-03-27T00:35:03.670Z,90.35
2019-03-27T00:36:03.664Z,89.89
2019-03-27T00:37:03.604Z,89.73
2019-03-27T00:38:03.578Z,90.04
2019-03-27T00:39:03.544Z,90.25
2019-03-27T00:40:03.507Z,90.77
2019-03-27T00:41:03.498Z,90.77
2019-03-27T00:42:03.447Z,91.07
2019-03-27T00:43:03.408Z,90.97
2019-03-27T00:44:03.374Z,90.66
2019-03-27T00:45:03.377Z,90.87
2019-03-27T00:46:03.333Z,91.28
2019-03-27T00:47:03.275Z,91.28
2019-03-27T00:48:03.244Z,91.49
2019-03-27T00:49:03.208Z,91.38
2019-03-27T00:50:03.250Z,91.69
2019-03-27T00:51:03.165Z,91.49
2019-03-27T00:52:03.112Z,92.00
2019-03-27T00:53:03.095Z,92.21
2019-03-27T00:54:03.046Z,92.52
2019-03-27T00:55:03.851Z,92.46
2019-03-27T00:56:03.001Z,92.42
2019-03-27T00:57:02.945Z,91.42
2019-03-27T00:58:02.910Z,92.42
2019-03-27T00:59:02.878Z,92.21
2019-03-27T01:00:02.942Z,91.94
2019-03-27T01:01:02.847Z,91.74
2019-03-27T01:02:02.784Z,92.05
2019-03-27T01:03:02.762Z,91.38
2019-03-27T01:04:02.716Z,91.42
2019-03-27T01:05:02.701Z,90.97
2019-03-27T01:06:02.650Z,91.42
2019-03-27T01:07:02.638Z,91.38
2019-03-27T01:08:02.580Z,91.11
2019-03-27T01:09:02.549Z,91.32
2019-03-27T01:10:02.518Z,91.28
2019-03-27T01:11:02.490Z,91.49
2019-03-27T01:12:02.476Z,91.17
2019-03-27T01:13:02.418Z,91.80
2019-03-27T01:14:02.381Z,91.63
2019-03-27T01:15:02.347Z,91.74
2019-03-27T01:16:02.313Z,92.32
2019-03-27T01:17:02.307Z,92.32
2019-03-27T01:18:02.252Z,92.00
2019-03-27T01:19:02.222Z,92.00
2019-03-27T01:20:02.188Z,92.00
2019-03-27T01:21:02.151Z,91.90
2019-03-27T01:22:02.145Z,92.57
2019-03-27T01:23:02.093Z,92.42
2019-03-27T01:24:02.050Z,92.46
2019-03-27T01:25:02.020Z,92.32
2019-03-27T01:26:01.984Z,92.42
2019-03-27T01:27:01.977Z,92.63
2019-03-27T01:28:01.920Z,92.63
2019-03-27T01:29:01.890Z,92.57
2019-03-27T01:30:01.852Z,92.46
2019-03-27T01:31:01.843Z,92.21
2019-03-27T01:32:01.810Z,92.42
2019-03-27T01:33:01.756Z,92.57
2019-03-27T01:34:01.721Z,92.63
2019-03-27T01:35:01.686Z,92.57
2019-03-27T01:36:01.662Z,92.67
2019-03-27T01:37:01.643Z,92.77
2019-03-27T01:38:01.587Z,92.97
2019-03-27T01:39:01.554Z,93.18
2019-03-27T01:40:01.527Z,93.08
2019-03-27T01:41:01.492Z,92.97
2019-03-27T01:42:01.482Z,93.18
2019-03-27T01:43:01.427Z,93.91
2019-03-27T01:44:01.394Z,93.18
2019-03-27T01:45:01.377Z,93.02
2019-03-27T01:46:01.327Z,93.33
2019-03-27T01:47:01.312Z,93.85
2019-03-27T01:48:01.255Z,93.33
2019-03-27T01:49:01.222Z,93.54
2019-03-27T01:50:01.195Z,93.43
2019-03-27T01:51:01.170Z,93.74
2019-03-27T01:52:01.149Z,93.85
2019-03-27T01:53:01.093Z,93.74
2019-03-27T01:54:01.058Z,93.95
2019-03-27T01:55:01.027Z,94.37
2019-03-27T01:56:00.987Z,94.31
2019-03-27T01:57:00.982Z,94.20
2019-03-27T01:58:00.928Z,94.10
2019-03-27T01:59:00.899Z,93.89
2019-03-27T02:00:00.871Z,94.26
2019-03-27T02:01:00.826Z,94.37
2019-03-27T02:02:00.921Z,94.37
2019-03-27T02:03:00.761Z,94.37
2019-03-27T02:04:00.727Z,94.37
2019-03-27T02:05:00.688Z,94.37
2019-03-27T02:06:00.655Z,94.16
2019-03-27T02:07:00.633Z,94.26
2019-03-27T02:08:00.617Z,94.37
2019-03-27T02:09:00.557Z,94.16
2019-03-27T02:10:00.525Z,94.26
2019-03-27T02:11:00.488Z,94.06
2019-03-27T02:12:00.568Z,93.64
2019-03-27T02:13:00.450Z,93.85
2019-03-27T02:14:00.388Z,94.16
2019-03-27T02:15:00.473Z,94.26
2019-03-27T02:16:06.847Z,94.01
2019-03-27T02:17:00.295Z,94.12
2019-03-27T02:18:00.282Z,94.12
2019-03-27T02:19:00.227Z,93.60
2019-03-27T02:20:00.361Z,92.97
2019-03-27T02:21:00.159Z,93.39
2019-03-27T02:22:00.128Z,93.60
2019-03-27T02:23:00.118Z,93.70
2019-03-27T02:24:00.062Z,93.18
2019-03-27T02:25:00.037Z,92.87
2019-03-27T02:25:59.995Z,93.18
2019-03-27T02:26:59.959Z,93.29
2019-03-27T02:27:59.960Z,93.18
2019-03-27T02:28:59.903Z,93.91
2019-03-27T02:29:59.863Z,92.77
2019-03-27T02:30:59.861Z,92.97
2019-03-27T02:31:59.826Z,92.93
2019-03-27T02:32:59.791Z,92.87
2019-03-27T02:33:59.736Z,93.24
2019-03-27T02:34:59.700Z,93.04
2019-03-27T02:35:59.670Z,93.14
2019-03-27T02:36:59.633Z,92.83
2019-03-27T02:37:59.629Z,92.83
2019-03-27T02:38:59.570Z,92.93
2019-03-27T02:39:59.536Z,92.72
2019-03-27T02:40:59.503Z,92.63
2019-03-27T02:41:59.475Z,92.21
2019-03-27T02:42:59.468Z,92.42
2019-03-27T02:43:59.403Z,92.42
2019-03-27T02:44:59.376Z,92.42
2019-03-27T02:45:59.341Z,92.63
2019-03-27T02:46:59.307Z,92.42
2019-03-27T02:47:59.309Z,92.32
2019-03-27T02:48:59.244Z,92.63
2019-03-27T02:49:59.237Z,92.52
2019-03-27T02:50:59.173Z,92.83
2019-03-27T02:51:59.155Z,92.72
2019-03-27T02:52:59.137Z,92.93
2019-03-27T02:53:59.076Z,92.83
2019-03-27T02:54:59.055Z,92.52
2019-03-27T02:55:59.077Z,92.83
2019-03-27T02:56:58.980Z,92.93
2019-03-27T02:57:58.986Z,92.93
2019-03-27T02:58:58.913Z,92.93
2019-03-27T02:59:58.894Z,93.24
2019-03-27T03:00:58.852Z,92.79
2019-03-27T03:01:58.820Z,92.83
2019-03-27T03:02:58.786Z,93.14
2019-03-27T03:03:58.776Z,93.14
2019-03-27T03:04:58.716Z,93.24
2019-03-27T03:05:58.687Z,93.14
2019-03-27T03:06:58.652Z,93.10
2019-03-27T03:07:58.622Z,92.89
2019-03-27T03:08:58.617Z,93.14
2019-03-27T03:09:58.556Z,93.20
2019-03-27T03:10:58.524Z,93.10
2019-03-27T03:11:58.494Z,93.20
2019-03-27T03:12:58.461Z,92.89
2019-03-27T03:13:58.443Z,92.58
2019-03-27T03:14:58.392Z,92.99
2019-03-27T03:15:58.366Z,92.48
2019-03-27T03:16:58.327Z,92.89
2019-03-27T03:17:58.298Z,92.48
2019-03-27T03:18:58.351Z,92.79
2019-03-27T03:19:58.230Z,92.89
2019-03-27T03:20:58.199Z,92.58
2019-03-27T03:21:58.165Z,92.89
2019-03-27T03:22:58.131Z,92.48
2019-03-27T03:23:58.112Z,92.58
2019-03-27T03:24:58.060Z,92.85
2019-03-27T03:25:58.023Z,92.74
2019-03-27T03:26:57.993Z,92.23
2019-03-27T03:27:57.962Z,92.58
2019-03-27T03:28:58.002Z,92.48
2019-03-27T03:29:57.913Z,92.38
2019-03-27T03:30:57.867Z,92.58
2019-03-27T03:31:57.898Z,92.54
2019-03-27T03:32:57.826Z,92.48
2019-03-27T03:33:57.799Z,92.44
2019-03-27T03:34:57.732Z,92.68
2019-03-27T03:35:57.717Z,92.54
2019-03-27T03:36:57.668Z,92.44
2019-03-27T03:37:57.634Z,92.44
2019-03-27T03:38:57.632Z,92.33
2019-03-27T03:39:57.573Z,92.23
2019-03-27T03:40:57.538Z,91.71
2019-03-27T03:41:57.502Z,91.61
2019-03-27T03:42:57.487Z,92.13
2019-03-27T03:43:57.461Z,92.02
2019-03-27T03:44:57.454Z,91.92
2019-03-27T03:45:57.377Z,92.13
2019-03-27T03:46:59.867Z,92.02
2019-03-27T03:47:57.308Z,91.82
2019-03-27T03:48:57.298Z,92.02
2019-03-27T03:49:57.246Z,92.02
2019-03-27T03:50:57.206Z,92.13
2019-03-27T03:51:57.181Z,92.02
2019-03-27T03:52:57.143Z,91.92
2019-03-27T03:53:57.132Z,91.71
2019-03-27T03:54:57.080Z,92.02
2019-03-27T03:55:57.043Z,91.61
2019-03-27T03:56:57.017Z,91.71
2019-03-27T03:57:56.980Z,91.61
2019-03-27T03:58:56.977Z,92.02
2019-03-27T03:59:56.913Z,92.02
2019-03-27T04:00:56.917Z,92.02
2019-03-27T04:01:56.846Z,92.02
2019-03-27T04:02:56.822Z,91.92
2019-03-27T04:03:56.782Z,92.02
2019-03-27T04:04:56.787Z,92.13
2019-03-27T04:05:56.718Z,92.23
2019-03-27T04:06:56.711Z,92.08
2019-03-27T04:07:56.660Z,91.82
2019-03-27T04:08:56.615Z,92.44
2019-03-27T04:09:56.611Z,92.44
2019-03-27T04:10:56.560Z,92.23
2019-03-27T04:11:56.520Z,92.23
2019-03-27T04:12:56.492Z,92.54
2019-03-27T04:13:56.453Z,92.44
2019-03-27T04:14:56.446Z,91.98
2019-03-27T04:15:56.390Z,92.64
2019-03-27T04:16:56.363Z,92.23
2019-03-27T04:17:56.334Z,92.64
2019-03-27T04:18:56.294Z,92.70
2019-03-27T04:19:56.285Z,92.85
2019-03-27T04:20:56.297Z,92.80
2019-03-27T04:21:56.195Z,92.95
2019-03-27T04:22:56.168Z,92.95
2019-03-27T04:23:56.126Z,93.05
2019-03-27T04:24:56.123Z,93.12
2019-03-27T04:26:09.120Z,93.05
2019-03-27T04:26:56.057Z,93.37
2019-03-27T04:27:55.995Z,93.47
2019-03-27T04:28:55.964Z,93.37
2019-03-27T04:29:56.019Z,93.37
2019-03-27T04:30:55.915Z,93.16
2019-03-27T04:31:55.867Z,93.37
2019-03-27T04:32:55.828Z,93.37
2019-03-27T04:33:55.801Z,93.16
2019-03-27T04:34:55.796Z,92.95
2019-03-27T04:35:55.774Z,92.85
2019-03-27T04:36:55.701Z,93.68
2019-03-27T04:37:55.667Z,93.78
2019-03-27T04:38:55.636Z,93.98
2019-03-27T04:39:55.628Z,93.73
2019-03-27T04:40:55.569Z,93.73
2019-03-27T04:41:55.541Z,93.78
2019-03-27T04:42:55.510Z,93.98
2019-03-27T04:43:55.471Z,93.53
2019-03-27T04:44:55.470Z,94.04
2019-03-27T04:45:55.477Z,94.09
2019-03-27T04:46:55.373Z,94.71
2019-03-27T04:47:55.338Z,94.71
2019-03-27T04:48:55.303Z,94.60
2019-03-27T04:49:55.301Z,94.71
2019-03-27T04:50:55.246Z,95.22
2019-03-27T04:51:55.205Z,95.32
2019-03-27T04:52:55.188Z,95.84
2019-03-27T04:53:55.159Z,95.53
2019-03-27T04:54:55.132Z,95.64
2019-03-27T04:55:55.072Z,95.74
2019-03-27T04:56:55.045Z,96.05
2019-03-27T04:57:55.011Z,96.36
2019-03-27T04:58:54.984Z,95.84
2019-03-27T04:59:54.971Z,95.84
2019-03-27T05:00:54.910Z,95.95
2019-03-27T05:01:54.878Z,96.05
2019-03-27T05:02:54.846Z,96.36
2019-03-27T05:03:54.813Z,96.77
2019-03-27T05:04:54.851Z,96.77
2019-03-27T05:05:54.907Z,96.56
2019-03-27T05:06:54.714Z,96.56
2019-03-27T05:07:54.690Z,96.47
2019-03-27T05:08:54.648Z,96.67
2019-03-27T05:09:54.615Z,96.56
2019-03-27T05:10:54.609Z,96.67
2019-03-27T05:11:54.561Z,96.36
2019-03-27T05:12:54.519Z,96.47
2019-03-27T05:13:54.485Z,96.26
2019-03-27T05:14:54.452Z,96.67
2019-03-27T05:15:54.445Z,96.56
2019-03-27T05:16:54.389Z,96.05
2019-03-27T05:17:54.371Z,96.05
2019-03-27T05:18:54.324Z,96.05
2019-03-27T05:19:54.294Z,95.95
2019-03-27T05:20:54.280Z,95.95
2019-03-27T05:21:54.221Z,96.15
2019-03-27T05:22:54.193Z,95.84
2019-03-27T05:23:54.159Z,95.53
2019-03-27T05:24:54.128Z,95.49
2019-03-27T05:25:54.115Z,95.70
2019-03-27T05:26:54.060Z,95.84
2019-03-27T05:27:54.024Z,95.64
2019-03-27T05:28:54.011Z,95.53
2019-03-27T05:29:53.961Z,95.74
2019-03-27T05:30:53.959Z,95.84
2019-03-27T05:31:53.902Z,96.15
2019-03-27T05:32:53.862Z,95.80
2019-03-27T05:33:53.832Z,95.95
2019-03-27T05:34:53.796Z,95.95
2019-03-27T05:35:53.794Z,96.15
2019-03-27T05:36:53.732Z,95.84
2019-03-27T05:37:53.711Z,95.64
2019-03-27T05:38:53.667Z,95.74
2019-03-27T05:39:53.634Z,95.74
2019-03-27T05:40:53.624Z,94.60
2019-03-27T05:41:53.576Z,94.71
2019-03-27T05:43:00.734Z,94.71
2019-03-27T05:43:53.509Z,94.60
2019-03-27T05:44:53.478Z,94.50
2019-03-27T05:45:53.469Z,94.29
2019-03-27T05:46:53.403Z,94.71
2019-03-27T05:47:59.434Z,94.15
2019-03-27T05:48:53.359Z,94.19
2019-03-27T05:49:53.310Z,93.78
2019-03-27T05:50:53.324Z,93.68
2019-03-27T05:51:53.256Z,93.37
2019-03-27T05:52:53.311Z,93.05
2019-03-27T05:53:53.176Z,92.95
2019-03-27T05:54:53.145Z,93.53
2019-03-27T05:55:53.137Z,93.12
2019-03-27T05:56:53.077Z,93.16
2019-03-27T05:57:53.043Z,92.50
2019-03-27T05:58:53.013Z,92.44
2019-03-27T05:59:52.987Z,92.29
2019-03-27T06:00:52.996Z,92.40
2019-03-27T06:01:52.910Z,92.19
2019-03-27T06:02:52.980Z,92.19
2019-03-27T06:03:52.847Z,92.25
2019-03-27T06:04:52.815Z,91.73
2019-03-27T06:05:52.781Z,91.22
2019-03-27T06:06:52.772Z,90.80
2019-03-27T06:07:52.714Z,90.91
2019-03-27T06:08:52.682Z,90.76
2019-03-27T06:09:52.653Z,90.59
2019-03-27T06:10:52.617Z,90.76
2019-03-27T06:11:55.788Z,90.04
2019-03-27T06:12:52.563Z,89.94
2019-03-27T06:13:52.521Z,89.73
2019-03-27T06:14:52.494Z,89.05
2019-03-27T06:15:52.455Z,89.15
2019-03-27T06:16:52.448Z,89.25
2019-03-27T06:17:52.392Z,89.25
2019-03-27T06:18:52.404Z,89.22
2019-03-27T06:19:52.334Z,89.05
2019-03-27T06:20:52.306Z,88.90
2019-03-27T06:21:52.288Z,88.80
2019-03-27T06:22:52.230Z,88.49
2019-03-27T06:23:52.196Z,88.39
2019-03-27T06:24:52.168Z,88.80
2019-03-27T06:25:52.147Z,88.49
2019-03-27T06:26:52.126Z,89.01
2019-03-27T06:27:52.069Z,89.56
2019-03-27T06:28:52.038Z,88.74
2019-03-27T06:29:52.001Z,88.64
2019-03-27T06:30:51.978Z,88.95
2019-03-27T06:31:51.960Z,88.74
2019-03-27T06:32:51.908Z,88.39
2019-03-27T06:33:51.876Z,88.29
2019-03-27T06:34:51.849Z,88.08
2019-03-27T06:35:51.809Z,88.18
2019-03-27T06:36:51.831Z,87.56
2019-03-27T06:37:51.749Z,88.18
2019-03-27T06:38:51.724Z,88.08
2019-03-27T06:39:51.690Z,88.29
2019-03-27T06:40:51.649Z,87.56
2019-03-27T06:41:51.657Z,87.52
2019-03-27T06:42:51.598Z,87.63
2019-03-27T06:43:51.570Z,86.80
2019-03-27T06:44:51.520Z,87.21
2019-03-27T06:45:51.490Z,87.01
2019-03-27T06:46:51.493Z,86.70
2019-03-27T06:47:51.433Z,86.70
2019-03-27T06:48:51.390Z,86.80
2019-03-27T06:49:51.358Z,86.90
2019-03-27T06:50:51.327Z,86.80
2019-03-27T06:51:51.316Z,86.04
2019-03-27T06:52:51.263Z,86.04
2019-03-27T06:53:51.234Z,85.52
2019-03-27T06:54:51.200Z,85.42
2019-03-27T06:55:51.167Z,85.07
2019-03-27T06:56:51.159Z,85.03
2019-03-27T06:57:51.107Z,83.73
2019-03-27T06:58:54.936Z,84.77
2019-03-27T06:59:51.051Z,84.87
2019-03-27T07:00:51.026Z,84.14
2019-03-27T07:01:51.006Z,83.80
2019-03-27T07:02:50.946Z,83.80
2019-03-27T07:03:50.913Z,82.73
2019-03-27T07:04:50.887Z,83.65
2019-03-27T07:05:50.853Z,82.83
2019-03-27T07:06:50.845Z,82.01
2019-03-27T07:07:50.801Z,83.35
2019-03-27T07:08:50.763Z,82.42
2019-03-27T07:09:51.398Z,81.56
2019-03-27T07:10:50.695Z,81.56
2019-03-27T07:11:50.666Z,81.67
2019-03-27T07:12:51.347Z,81.56
2019-03-27T07:13:50.601Z,80.98
2019-03-27T07:14:50.587Z,81.49
2019-03-27T07:15:50.544Z,81.15
2019-03-27T07:16:50.516Z,80.74
2019-03-27T07:17:50.511Z,80.33
2019-03-27T07:18:50.450Z,80.84
2019-03-27T07:19:50.442Z,80.94
2019-03-27T07:20:50.401Z,80.22
2019-03-27T07:21:50.364Z,79.98
2019-03-27T07:22:50.349Z,80.29
2019-03-27T07:23:50.296Z,80.19
2019-03-27T07:24:50.264Z,80.29
2019-03-27T07:25:50.231Z,79.98
2019-03-27T07:26:50.207Z,80.19
2019-03-27T07:27:50.438Z,79.88
2019-03-27T07:28:50.143Z,80.08
2019-03-27T07:29:50.113Z,80.43
2019-03-27T07:30:50.083Z,80.02
2019-03-27T07:31:50.053Z,80.43
2019-03-27T07:32:50.043Z,80.43
2019-03-27T07:33:49.983Z,80.63
2019-03-27T07:34:49.957Z,81.49
2019-03-27T07:35:49.929Z,81.15
2019-03-27T07:36:49.899Z,81.67
2019-03-27T07:37:49.892Z,81.25
2019-03-27T07:38:49.844Z,79.91
2019-03-27T07:39:49.808Z,80.02
2019-03-27T07:40:49.778Z,80.43
2019-03-27T07:41:49.743Z,80.74
2019-03-27T07:42:49.743Z,80.53
2019-03-27T07:43:49.683Z,80.47
2019-03-27T07:44:49.651Z,80.33
2019-03-27T07:45:49.623Z,80.94
2019-03-27T07:46:49.589Z,80.53
2019-03-27T07:47:50.588Z,79.98
2019-03-27T07:48:54.246Z,80.29
2019-03-27T07:49:49.499Z,79.36
2019-03-27T07:50:49.476Z,79.36
2019-03-27T07:51:49.442Z,79.98
2019-03-27T07:52:49.479Z,80.29
2019-03-27T07:53:49.394Z,79.36
2019-03-27T07:54:49.351Z,79.50
2019-03-27T07:55:49.317Z,80.12
2019-03-27T07:56:49.288Z,80.12
2019-03-27T07:57:49.327Z,80.43
2019-03-27T07:58:49.230Z,80.84
2019-03-27T07:59:49.195Z,80.63
2019-03-27T08:00:49.163Z,80.12
2019-03-27T08:01:49.132Z,80.22
2019-03-27T08:02:49.129Z,80.12
2019-03-27T08:03:49.073Z,80.43
2019-03-27T08:04:49.046Z,80.12
2019-03-27T08:05:49.056Z,80.19
2019-03-27T08:06:48.983Z,79.47
2019-03-27T08:07:48.979Z,79.98
2019-03-27T08:08:48.922Z,80.08
2019-03-27T08:09:48.900Z,79.77
2019-03-27T08:10:48.855Z,79.88
2019-03-27T08:11:48.826Z,80.39
2019-03-27T08:12:48.942Z,79.47
2019-03-27T08:13:48.767Z,79.47
2019-03-27T08:14:48.732Z,79.74
2019-03-27T08:15:48.712Z,79.22
2019-03-27T08:16:48.687Z,79.26
2019-03-27T08:17:48.642Z,79.67
2019-03-27T08:18:48.649Z,79.63
2019-03-27T08:19:48.583Z,79.22
2019-03-27T08:20:48.553Z,79.74
2019-03-27T08:21:48.520Z,79.12
2019-03-27T08:22:48.494Z,79.43
2019-03-27T08:23:48.483Z,78.92
2019-03-27T08:24:48.440Z,79.67
2019-03-27T08:25:48.406Z,80.39
2019-03-27T08:26:48.470Z,79.47
2019-03-27T08:27:48.350Z,80.39
2019-03-27T08:28:48.357Z,80.19
2019-03-27T08:29:48.280Z,80.53
2019-03-27T08:30:48.246Z,81.05
2019-03-27T08:31:48.220Z,81.29
2019-03-27T08:32:48.190Z,81.56
2019-03-27T08:33:48.187Z,82.01
2019-03-27T08:34:48.156Z,81.67
2019-03-27T08:35:48.106Z,81.42
2019-03-27T08:36:48.078Z,81.42
2019-03-27T08:37:48.039Z,81.11
2019-03-27T08:38:48.026Z,81.01
2019-03-27T08:39:47.977Z,80.80
2019-03-27T08:40:47.943Z,79.84
2019-03-27T08:41:47.917Z,79.49
2019-03-27T08:42:47.882Z,78.98
2019-03-27T08:43:47.872Z,78.88
2019-03-27T08:44:51.313Z,78.64
2019-03-27T08:45:47.790Z,77.26
2019-03-27T08:46:47.892Z,77.17
2019-03-27T08:47:47.725Z,76.45
2019-03-27T08:48:47.724Z,76.34
2019-03-27T08:49:47.666Z,76.31
2019-03-27T08:50:47.638Z,76.31
2019-03-27T08:51:47.610Z,76.31
2019-03-27T08:52:47.577Z,75.86
2019-03-27T08:53:47.588Z,75.31
2019-03-27T08:54:47.526Z,74.84
2019-03-27T08:55:47.497Z,74.73
2019-03-27T08:56:47.458Z,75.15
2019-03-27T08:57:47.433Z,74.90
2019-03-27T08:58:47.442Z,74.90
2019-03-27T08:59:47.368Z,74.60
2019-03-27T09:00:47.400Z,73.85
2019-03-27T09:01:47.319Z,73.23
2019-03-27T09:02:47.287Z,74.08
2019-03-27T09:03:47.284Z,73.78
2019-03-27T09:04:47.230Z,73.03
2019-03-27T09:05:47.205Z,72.82
2019-03-27T09:06:47.189Z,73.33
2019-03-27T09:07:47.143Z,73.81
2019-03-27T09:08:47.139Z,73.81
2019-03-27T09:09:47.086Z,73.10
2019-03-27T09:10:47.059Z,73.71
2019-03-27T09:11:47.026Z,73.20
2019-03-27T09:12:46.999Z,72.89
2019-03-27T09:13:46.991Z,72.17
2019-03-27T09:14:46.990Z,72.82
2019-03-27T09:15:46.913Z,73.30
2019-03-27T09:16:46.880Z,71.86
2019-03-27T09:17:46.858Z,72.89
2019-03-27T09:18:46.828Z,72.99
2019-03-27T09:19:46.823Z,72.48
2019-03-27T09:20:46.775Z,71.97
2019-03-27T09:21:46.757Z,71.97
2019-03-27T09:22:46.711Z,71.66
2019-03-27T09:23:46.688Z,71.86
2019-03-27T09:24:46.681Z,71.62
2019-03-27T09:25:46.623Z,71.29
2019-03-27T09:26:46.606Z,70.75
2019-03-27T09:27:46.571Z,70.75
2019-03-27T09:28:46.542Z,71.25
2019-03-27T09:29:46.540Z,69.96
2019-03-27T09:30:46.488Z,70.09
2019-03-27T09:31:46.457Z,70.40
2019-03-27T09:32:46.431Z,70.50
2019-03-27T09:33:46.400Z,71.04
2019-03-27T09:34:46.394Z,71.66
2019-03-27T09:35:46.371Z,71.86
2019-03-27T09:36:46.319Z,73.10
2019-03-27T09:37:46.295Z,71.15
2019-03-27T09:38:46.264Z,72.41
2019-03-27T09:39:46.255Z,71.90
2019-03-27T09:40:46.203Z,72.82
2019-03-27T09:41:46.175Z,72.92
2019-03-27T09:42:46.149Z,72.72
2019-03-27T09:43:46.134Z,73.16
2019-03-27T09:44:46.114Z,73.40
2019-03-27T09:45:46.061Z,74.53
2019-03-27T09:46:46.036Z,74.43
2019-03-27T09:47:46.011Z,74.73
2019-03-27T09:48:45.972Z,73.98
2019-03-27T09:49:49.928Z,72.86
2019-03-27T09:50:45.919Z,73.06
2019-03-27T09:51:45.892Z,73.88
2019-03-27T09:52:45.858Z,73.06
2019-03-27T09:53:45.836Z,74.29
2019-03-27T09:54:45.827Z,73.23
2019-03-27T09:55:45.779Z,72.82
2019-03-27T09:56:45.763Z,72.86
2019-03-27T09:57:45.715Z,73.03
2019-03-27T09:58:45.693Z,73.13
2019-03-27T09:59:45.686Z,72.78
2019-03-27T10:00:45.638Z,73.23
2019-03-27T10:01:45.611Z,72.61
2019-03-27T10:02:45.567Z,73.06
2019-03-27T10:03:45.589Z,73.06
2019-03-27T10:04:45.538Z,72.96
2019-03-27T10:05:45.481Z,73.16
2019-03-27T10:06:45.467Z,73.85
2019-03-27T10:07:45.424Z,73.03
2019-03-27T10:08:45.393Z,73.10
2019-03-27T10:09:45.438Z,72.89
2019-03-27T10:10:45.927Z,72.17
2019-03-27T10:11:45.306Z,72.17
2019-03-27T10:12:45.281Z,71.66
2019-03-27T10:13:45.275Z,72.17
2019-03-27T10:14:47.483Z,71.56
2019-03-27T10:15:45.210Z,71.04
2019-03-27T10:16:45.163Z,71.36
2019-03-27T10:17:45.135Z,70.40
2019-03-27T10:18:47.426Z,69.85
2019-03-27T10:19:45.102Z,69.34
2019-03-27T10:20:45.048Z,69.52
2019-03-27T10:21:45.019Z,69.21
2019-03-27T10:22:44.990Z,68.90
2019-03-27T10:23:45.949Z,68.49
2019-03-27T10:24:44.980Z,68.08
2019-03-27T10:25:44.906Z,68.08
2019-03-27T10:26:44.882Z,68.36
2019-03-27T10:27:44.847Z,67.95
2019-03-27T10:28:44.822Z,67.71
2019-03-27T10:29:44.828Z,67.27
2019-03-27T10:30:44.765Z,67.47
2019-03-27T10:31:44.736Z,67.95
2019-03-27T10:32:44.708Z,68.36
2019-03-27T10:33:44.681Z,67.95
2019-03-27T10:34:44.706Z,68.57
2019-03-27T10:35:44.638Z,68.33
2019-03-27T10:36:44.600Z,67.99
2019-03-27T10:37:44.621Z,66.90
2019-03-27T10:38:44.538Z,66.93
2019-03-27T10:39:44.514Z,67.24
2019-03-27T10:40:44.483Z,68.29
2019-03-27T10:41:44.469Z,68.39
2019-03-27T10:42:44.476Z,68.32
2019-03-27T10:43:44.402Z,68.93
2019-03-27T10:44:44.372Z,68.52
2019-03-27T10:45:44.353Z,69.38
2019-03-27T10:46:44.314Z,69.24
2019-03-27T10:47:44.335Z,69.68
2019-03-27T10:48:52.531Z,70.03
2019-03-27T10:49:44.285Z,70.84
2019-03-27T10:50:44.205Z,70.87
2019-03-27T10:51:44.179Z,71.18
2019-03-27T10:52:44.192Z,71.01
2019-03-27T10:53:44.144Z,71.62
2019-03-27T10:54:44.091Z,71.52
2019-03-27T10:55:52.924Z,70.98
2019-03-27T10:56:44.046Z,71.28
2019-03-27T10:57:44.060Z,71.28
2019-03-27T10:58:44.069Z,71.49
2019-03-27T10:59:43.947Z,71.69
2019-03-27T11:00:43.921Z,71.28
2019-03-27T11:01:43.902Z,71.18
2019-03-27T11:02:43.915Z,71.36
2019-03-27T11:03:43.834Z,70.94
2019-03-27T11:04:43.809Z,70.23
2019-03-27T11:05:43.774Z,70.53
2019-03-27T11:06:43.751Z,70.36
2019-03-27T11:07:43.756Z,70.67
2019-03-27T11:08:43.729Z,70.87
2019-03-27T11:09:43.648Z,70.94
2019-03-27T11:10:43.627Z,70.67
2019-03-27T11:11:43.611Z,70.74
2019-03-27T11:12:43.569Z,70.09
2019-03-27T11:13:43.580Z,69.68
2019-03-27T11:14:43.505Z,69.07
2019-03-27T11:15:43.483Z,68.73
2019-03-27T11:16:43.458Z,68.32
2019-03-27T11:17:43.422Z,68.12
2019-03-27T11:18:43.441Z,68.84
2019-03-27T11:19:43.377Z,68.29
2019-03-27T11:20:43.344Z,68.60
2019-03-27T11:21:43.301Z,67.98
2019-03-27T11:22:43.278Z,68.49
2019-03-27T11:23:43.310Z,67.44
2019-03-27T11:24:43.229Z,67.00
2019-03-27T11:25:43.195Z,66.28
2019-03-27T11:26:43.166Z,66.49
2019-03-27T11:27:43.132Z,66.49
2019-03-27T11:28:43.159Z,65.88
2019-03-27T11:29:43.080Z,66.90
2019-03-27T11:30:43.050Z,66.08
2019-03-27T11:31:43.962Z,66.80
2019-03-27T11:32:43.047Z,66.52
2019-03-27T11:33:42.967Z,66.80
2019-03-27T11:34:42.977Z,66.39
2019-03-27T11:35:42.909Z,65.88
2019-03-27T11:36:42.948Z,66.39
2019-03-27T11:37:42.857Z,66.69
2019-03-27T11:38:42.826Z,65.88
2019-03-27T11:39:42.796Z,65.98
2019-03-27T11:40:42.770Z,65.47
2019-03-27T11:41:42.798Z,65.64
2019-03-27T11:42:42.714Z,65.44
2019-03-27T11:43:54.279Z,65.00
2019-03-27T11:44:42.656Z,64.90
2019-03-27T11:45:42.634Z,66.12
2019-03-27T11:46:42.673Z,65.64
2019-03-27T11:47:42.582Z,65.77
2019-03-27T11:48:42.651Z,65.67
2019-03-27T11:49:42.517Z,65.98
2019-03-27T11:50:45.162Z,66.28
2019-03-27T11:51:43.028Z,66.08
2019-03-27T11:52:42.438Z,65.57
2019-03-27T11:53:42.404Z,65.77
2019-03-27T11:54:42.382Z,65.71
2019-03-27T11:55:42.400Z,65.07
2019-03-27T11:56:42.343Z,63.58
2019-03-27T11:57:42.353Z,62.16
2019-03-27T11:58:42.269Z,63.00
2019-03-27T11:59:53.211Z,63.51
2019-03-27T12:00:53.762Z,63.31
2019-03-27T12:01:43.903Z,62.59
2019-03-27T12:02:42.163Z,62.87
2019-03-27T12:03:42.189Z,62.94
2019-03-27T12:04:42.109Z,61.41
2019-03-27T12:05:42.137Z,61.82
2019-03-27T12:06:42.052Z,61.95
2019-03-27T12:07:42.025Z,62.84
2019-03-27T12:08:42.046Z,62.13
2019-03-27T12:09:41.986Z,61.31
2019-03-27T12:10:42.004Z,61.18
2019-03-27T12:11:41.963Z,61.59
2019-03-27T12:12:41.897Z,61.61
2019-03-27T12:13:41.872Z,60.68
2019-03-27T12:14:41.843Z,61.65
2019-03-27T12:15:41.814Z,61.78
2019-03-27T12:16:41.830Z,62.21
2019-03-27T12:17:41.774Z,62.52
2019-03-27T12:18:41.749Z,62.82
2019-03-27T12:19:41.748Z,63.51
2019-03-27T12:20:41.738Z,63.71
2019-03-27T12:21:41.657Z,62.90
2019-03-27T12:22:41.686Z,62.80
2019-03-27T12:23:41.652Z,62.62
2019-03-27T12:24:41.577Z,62.93
2019-03-27T12:25:41.548Z,63.28
2019-03-27T12:26:41.520Z,62.36
2019-03-27T12:27:41.504Z,61.57
2019-03-27T12:28:41.587Z,61.78
2019-03-27T12:29:41.443Z,62.08
2019-03-27T12:30:41.417Z,61.31
2019-03-27T12:31:41.425Z,61.00
2019-03-27T12:32:41.359Z,61.52
2019-03-27T12:33:41.372Z,61.44
2019-03-27T12:34:41.301Z,62.08
2019-03-27T12:35:41.317Z,62.39
2019-03-27T12:36:41.252Z,62.82
2019-03-27T12:37:41.233Z,62.93
2019-03-27T12:38:41.250Z,63.75
2019-03-27T12:39:41.268Z,63.75
2019-03-27T12:40:41.148Z,63.23
2019-03-27T12:41:41.117Z,63.03
2019-03-27T12:42:41.094Z,63.03
2019-03-27T12:43:41.109Z,63.75
2019-03-27T12:44:41.100Z,63.95
2019-03-27T12:45:41.008Z,63.64
2019-03-27T12:46:40.981Z,63.10
2019-03-27T12:47:40.958Z,63.71
2019-03-27T12:48:40.929Z,62.32
2019-03-27T12:49:40.952Z,63.47
2019-03-27T12:50:44.033Z,64.08
2019-03-27T12:51:40.844Z,64.59